Time;durP1;ratioP1;P1;durP2;ratioP2;P2;SDS_P1;SDS_P2;PMS_P1;PMS_P2;Temp;Humidity;BMP_temperature;BMP_pressure;BME280_temperature;BME280_humidity;BME280_pressure;Samples;Min_cycle;Max_cycle;Signal;HPM_P1;HPM_P2
2021/06/17 00:00:07;;;;;;;14.50;10.15;;;;;;;13.81;78.00;98388.46;1797356;79;21398;-76
2021/06/17 00:02:35;;;;;;;15.40;9.73;;;;;;;13.83;78.28;98385.44;1765762;80;20986;-77
2021/06/17 00:10:06;;;;;;;13.00;9.33;;;;;;;13.83;76.76;98392.25;1765579;81;21008;-76
2021/06/17 00:12:51;;;;;;;16.90;9.48;;;;;;;13.73;78.61;98393.19;1797033;79;21483;-76
2021/06/17 00:15:18;;;;;;;14.13;9.95;;;;;;;13.71;78.12;98392.67;1765769;80;21016;-76
2021/06/17 00:17:44;;;;;;;14.23;10.60;;;;;;;13.72;78.94;98394.30;1797563;79;21382;-76
2021/06/17 00:20:11;;;;;;;14.33;9.95;;;;;;;13.80;78.10;98395.56;1765528;80;21001;-76
2021/06/17 00:22:37;;;;;;;16.35;10.35;;;;;;;13.78;78.87;98399.95;1797477;79;20954;-76
2021/06/17 00:25:04;;;;;;;17.48;11.28;;;;;;;13.81;78.29;98398.55;1765586;81;20869;-76
2021/06/17 00:27:30;;;;;;;16.45;12.07;;;;;;;13.80;78.27;98398.29;1797437;79;20993;-76
2021/06/17 00:29:56;;;;;;;17.80;10.95;;;;;;;13.72;78.92;98388.84;1765655;80;20997;-76
2021/06/17 00:32:22;;;;;;;15.38;10.55;;;;;;;13.67;79.41;98392.17;1797275;79;20948;-76
2021/06/17 00:34:48;;;;;;;16.82;10.18;;;;;;;13.60;78.94;98393.91;1765673;80;20906;-76
2021/06/17 00:37:14;;;;;;;17.15;10.90;;;;;;;13.52;79.34;98404.07;1797473;79;21016;-76
2021/06/17 00:39:41;;;;;;;13.15;9.83;;;;;;;13.49;78.68;98396.46;1765789;81;21418;-76
2021/06/17 00:42:07;;;;;;;14.38;10.13;;;;;;;13.43;78.75;98396.28;1797342;79;21814;-76
2021/06/17 00:44:34;;;;;;;15.70;10.23;;;;;;;13.38;79.41;98389.52;1765654;80;21405;-76
2021/06/17 00:47:00;;;;;;;14.53;10.75;;;;;;;13.37;79.75;98388.70;1797431;79;20993;-76
2021/06/17 00:49:26;;;;;;;14.55;9.95;;;;;;;13.36;81.06;98383.00;1778333;80;20913;-76
2021/06/17 00:51:53;;;;;;;12.88;9.60;;;;;;;13.37;80.31;98383.81;1797376;79;21029;-76
2021/06/17 00:54:33;;;;;;;12.18;10.03;;;;;;;13.41;79.58;98387.56;1752608;81;21001;-76
2021/06/17 00:57:06;;;;;;;12.03;9.35;;;;;;;13.41;80.54;98388.38;1797343;79;20941;-77
2021/06/17 00:59:32;;;;;;;14.73;9.05;;;;;;;13.37;80.29;98387.34;1764082;81;20949;-76
2021/06/17 01:01:58;;;;;;;13.58;9.68;;;;;;;13.35;79.59;98388.74;1787917;80;21012;-76
2021/06/17 01:04:25;;;;;;;13.62;9.28;;;;;;;13.30;80.05;98384.70;1787896;79;20933;-76
2021/06/17 01:06:55;;;;;;;12.28;10.35;;;;;;;13.29;80.18;98385.81;1787611;80;21118;-76
2021/06/17 01:09:48;;;;;;;12.63;9.38;;;;;;;13.26;79.99;98388.02;1787564;80;21465;-76
2021/06/17 01:12:46;;;;;;;13.40;10.70;;;;;;;13.22;79.33;98390.22;1787888;80;20941;-77
2021/06/17 01:15:17;;;;;;;14.60;10.45;;;;;;;13.07;80.08;98388.42;1787692;79;20962;-77
2021/06/17 01:17:54;;;;;;;13.65;9.45;;;;;;;13.04;80.04;98387.64;1787966;80;21032;-77
2021/06/17 01:20:39;;;;;;;15.08;9.38;;;;;;;13.07;81.15;98396.58;1764839;81;21144;-77
2021/06/17 01:23:39;;;;;;;12.70;9.85;;;;;;;13.09;79.49;98398.49;1787778;80;21473;-77
2021/06/17 01:26:22;;;;;;;13.78;9.90;;;;;;;13.10;81.40;98393.86;1765242;81;21397;-76
2021/06/17 01:28:51;;;;;;;14.28;9.75;;;;;;;13.11;80.08;98396.29;1787786;80;21020;-77
2021/06/17 01:31:20;;;;;;;16.62;10.18;;;;;;;13.11;80.45;98396.84;1765467;80;21028;-77
2021/06/17 01:33:48;;;;;;;13.10;9.08;;;;;;;13.09;81.31;98395.77;1787898;80;21102;-77
2021/06/17 01:36:17;;;;;;;13.93;9.68;;;;;;;13.09;80.10;98389.52;1787762;79;20945;-77
2021/06/17 01:38:53;;;;;;;12.43;9.70;;;;;;;13.07;79.69;98390.33;1787681;80;21359;-77
2021/06/17 01:41:21;;;;;;;12.68;10.10;;;;;;;13.03;80.07;98384.67;1786714;80;21012;-76
2021/06/17 01:43:47;;;;;;;15.23;10.18;;;;;;;12.98;80.19;98383.34;1787658;80;20898;-76
2021/06/17 01:46:13;;;;;;;13.43;10.72;;;;;;;12.93;79.81;98382.05;1787929;80;21103;-76
2021/06/17 01:48:40;;;;;;;14.38;9.88;;;;;;;12.84;80.24;98376.41;1764885;81;20968;-76
2021/06/17 01:51:06;;;;;;;15.05;10.18;;;;;;;12.79;80.41;98382.44;1765053;80;21401;-76
2021/06/17 01:53:32;;;;;;;14.65;10.00;;;;;;;12.70;80.61;98379.52;1758752;80;20948;-76
2021/06/17 01:55:58;;;;;;;13.15;9.70;;;;;;;12.67;80.32;98377.37;1787813;80;20853;-76
2021/06/17 01:58:26;;;;;;;11.73;9.38;;;;;;;12.65;80.04;98378.22;1787545;79;21715;-76
2021/06/17 02:00:52;;;;;;;12.43;9.33;;;;;;;12.58;79.95;98374.45;1764838;80;21013;-76
2021/06/17 02:03:20;;;;;;;12.78;8.48;;;;;;;12.47;81.41;98375.61;1787857;80;20969;-76
2021/06/17 02:05:46;;;;;;;14.87;9.75;;;;;;;12.45;81.61;98377.00;1784544;80;21043;-76
2021/06/17 02:08:15;;;;;;;12.58;9.28;;;;;;;12.49;80.36;98369.91;1759297;80;21234;-76
2021/06/17 02:10:41;;;;;;;12.33;10.08;;;;;;;12.51;80.61;98376.68;1787616;80;21130;-77
2021/06/17 02:13:10;;;;;;;15.08;9.53;;;;;;;12.51;80.75;98376.68;1765069;81;21432;-76
2021/06/17 02:15:36;;;;;;;12.20;9.23;;;;;;;12.53;80.16;98381.28;1772808;80;21339;-76
2021/06/17 02:18:28;;;;;;;11.33;9.38;;;;;;;12.55;80.90;98382.34;1765121;80;21000;-76
2021/06/17 02:20:59;;;;;;;16.30;9.33;;;;;;;12.54;80.54;98376.10;1765065;81;20988;-76
2021/06/17 02:23:27;;;;;;;12.75;10.23;;;;;;;12.51;80.05;98371.80;1765004;80;21134;-76
2021/06/17 02:25:53;;;;;;;11.88;9.15;;;;;;;12.48;80.33;98376.45;1787665;80;20997;-77
2021/06/17 02:28:21;;;;;;;12.95;10.20;;;;;;;12.43;80.12;98380.81;1787731;80;20922;-77
2021/06/17 02:30:48;;;;;;;12.58;9.15;;;;;;;12.37;80.11;98381.12;1787516;79;20925;-77
2021/06/17 02:33:15;;;;;;;12.25;9.55;;;;;;;12.33;79.62;98380.08;1788193;80;21080;-77
2021/06/17 02:35:43;;;;;;;11.48;8.93;;;;;;;12.27;79.94;98377.13;1787591;80;21017;-77
2021/06/17 02:38:10;;;;;;;15.70;9.50;;;;;;;12.25;79.59;98376.59;1784883;79;21008;-77
2021/06/17 02:40:41;;;;;;;13.22;8.65;;;;;;;12.26;79.90;98373.59;1787458;80;21040;-77
2021/06/17 02:43:12;;;;;;;15.35;8.18;;;;;;;12.29;79.79;98374.92;1787603;80;21386;-77
2021/06/17 02:46:07;;;;;;;12.07;9.33;;;;;;;12.30;79.73;98377.91;1764669;80;21024;-77
2021/06/17 02:48:38;;;;;;;15.50;8.70;;;;;;;12.21;79.78;98377.69;1785236;80;21362;-76
2021/06/17 02:51:04;;;;;;;10.68;7.95;;;;;;;12.15;80.27;98372.05;1787558;80;21488;-76
2021/06/17 02:53:30;;;;;;;13.85;8.55;;;;;;;12.17;79.82;98371.76;1788124;80;21001;-76
2021/06/17 02:55:57;;;;;;;19.95;9.65;;;;;;;12.20;79.62;98375.26;1787681;80;20906;-76
2021/06/17 02:58:44;;;;;;;13.75;8.68;;;;;;;12.19;79.99;98376.35;1787820;80;20909;-77
2021/06/17 03:01:26;;;;;;;17.40;10.80;;;;;;;12.14;79.81;98378.02;1786774;80;21426;-76
2021/06/17 03:03:55;;;;;;;12.25;10.00;;;;;;;12.04;81.23;98376.70;1765094;81;21070;-77
2021/06/17 03:06:37;;;;;;;13.38;9.90;;;;;;;12.01;81.45;98366.95;1779371;80;24724;-77
2021/06/17 03:09:06;;;;;;;11.97;9.95;;;;;;;11.98;80.44;98374.31;1765337;80;21325;-76
2021/06/17 03:11:34;;;;;;;16.75;10.43;;;;;;;12.02;80.57;98365.86;1776842;80;20954;-77
2021/06/17 03:14:04;;;;;;;15.40;10.25;;;;;;;12.05;80.59;98367.48;1765234;81;21101;-77
2021/06/17 03:16:32;;;;;;;12.65;8.75;;;;;;;12.08;80.57;98383.21;1779520;80;21411;-76
2021/06/17 03:18:59;;;;;;;15.32;10.80;;;;;;;12.10;80.85;98376.95;1765224;80;20912;-76
2021/06/17 03:21:29;;;;;;;17.10;8.73;;;;;;;12.16;80.39;98380.45;1779433;80;21422;-76
2021/06/17 03:23:56;;;;;;;12.73;9.75;;;;;;;12.20;81.22;98373.35;1739570;81;21015;-77
2021/06/17 03:26:23;;;;;;;12.20;8.63;;;;;;;12.32;80.28;98376.55;1779591;80;21140;-77
2021/06/17 03:28:49;;;;;;;14.30;10.08;;;;;;;12.41;79.81;98380.29;1765197;80;21070;-77
2021/06/17 03:31:16;;;;;;;12.28;9.05;;;;;;;12.51;80.53;98382.11;1755284;80;21441;-77
2021/06/17 03:33:42;;;;;;;11.63;9.15;;;;;;;12.65;80.30;98380.39;1765647;80;20988;-77
2021/06/17 03:36:09;;;;;;;14.00;9.83;;;;;;;12.79;80.72;98383.80;1779595;80;20895;-76
2021/06/17 03:38:36;;;;;;;13.30;9.33;;;;;;;12.91;80.65;98380.17;1765416;80;21141;-77
2021/06/17 03:41:02;;;;;;;14.50;10.95;;;;;;;13.02;79.93;98384.41;1755179;80;20985;-77
2021/06/17 03:43:29;;;;;;;16.65;10.08;;;;;;;13.11;79.83;98383.23;1765519;81;21004;-77
2021/06/17 03:45:56;;;;;;;18.23;10.85;;;;;;;13.16;79.91;98385.37;1755394;80;21360;-77
2021/06/17 03:48:22;;;;;;;13.65;9.70;;;;;;;13.28;79.15;98385.00;1765364;81;20894;-77
2021/06/17 03:50:48;;;;;;;12.93;9.48;;;;;;;13.36;79.17;98382.20;1765276;81;21105;-77
2021/06/17 03:53:14;;;;;;;15.60;10.65;;;;;;;13.47;79.27;98383.15;1765457;81;21123;-77
2021/06/17 03:55:42;;;;;;;14.30;9.53;;;;;;;13.60;78.79;98380.30;1779377;80;21419;-77
2021/06/17 03:58:09;;;;;;;16.82;11.30;;;;;;;13.69;78.53;98386.72;1765377;80;21460;-77
2021/06/17 04:00:35;;;;;;;12.55;10.23;;;;;;;13.83;78.44;98386.25;1797273;79;20883;-77
2021/06/17 04:03:06;;;;;;;14.47;9.53;;;;;;;14.04;77.87;98382.72;1765944;81;21853;-77
2021/06/17 04:05:32;;;;;;;18.32;11.83;;;;;;;14.20;77.08;98387.41;1796881;79;21003;-77
2021/06/17 04:07:59;;;;;;;16.77;10.45;;;;;;;14.20;77.27;98379.23;1778593;80;21008;-77
2021/06/17 04:10:25;;;;;;;14.87;8.98;;;;;;;14.32;77.13;98384.23;1783556;79;20970;-77
2021/06/17 04:12:53;;;;;;;17.00;9.80;;;;;;;14.44;77.07;98381.05;1766062;80;21450;-77
2021/06/17 04:15:19;;;;;;;11.15;9.33;;;;;;;14.58;76.60;98381.97;1797667;79;21025;-77
2021/06/17 04:17:50;;;;;;;15.23;9.58;;;;;;;14.73;76.21;98380.36;1765953;80;21008;-77
2021/06/17 04:20:20;;;;;;;12.95;9.40;;;;;;;14.90;75.66;98373.80;1797090;79;21319;-77
2021/06/17 04:22:47;;;;;;;14.93;10.08;;;;;;;15.04;75.29;98371.64;1766213;80;21005;-77
2021/06/17 04:25:13;;;;;;;16.17;10.65;;;;;;;15.15;74.72;98373.09;1797161;79;20966;-77
2021/06/17 04:27:41;;;;;;;11.95;9.43;;;;;;;15.24;74.40;98372.09;1765977;80;21125;-77
2021/06/17 04:30:10;;;;;;;13.10;10.43;;;;;;;15.39;73.90;98377.03;1797302;79;20937;-77
2021/06/17 04:32:38;;;;;;;14.55;10.45;;;;;;;15.42;73.75;98375.05;1766011;80;21036;-76
2021/06/17 04:35:05;;;;;;;13.17;9.57;;;;;;;15.55;73.27;98374.78;1797440;79;20910;-77
2021/06/17 04:37:31;;;;;;;16.12;10.80;;;;;;;15.65;73.20;98376.00;1766511;80;21076;-77
2021/06/17 04:39:58;;;;;;;16.00;10.40;;;;;;;15.84;73.22;98370.42;1797148;79;21317;-77
2021/06/17 04:42:26;;;;;;;12.88;9.53;;;;;;;15.98;72.48;98369.30;1765780;80;20977;-77
2021/06/17 04:44:52;;;;;;;13.08;8.95;;;;;;;16.12;71.83;98376.08;1797105;79;21020;-77
2021/06/17 04:47:19;;;;;;;13.13;9.03;;;;;;;16.18;72.07;98372.69;1765912;80;21044;-77
2021/06/17 04:49:45;;;;;;;12.43;8.88;;;;;;;16.38;71.35;98370.84;1797349;79;21354;-77
2021/06/17 04:52:35;;;;;;;14.10;9.00;;;;;;;16.53;71.37;98373.80;1778385;80;21501;-77
2021/06/17 04:55:01;;;;;;;10.53;8.35;;;;;;;16.75;70.47;98373.84;1797127;79;21418;-77
2021/06/17 04:57:27;;;;;;;10.10;8.38;;;;;;;16.87;70.91;98371.34;1765874;80;21012;-77
2021/06/17 04:59:53;;;;;;;11.33;8.60;;;;;;;17.12;70.76;98370.44;1785859;79;21354;-77
2021/06/17 05:02:19;;;;;;;11.45;8.55;;;;;;;17.36;70.20;98372.27;1751570;81;21531;-77
2021/06/17 05:04:45;;;;;;;15.35;9.98;;;;;;;17.53;69.58;98377.01;1765714;80;21080;-77
2021/06/17 05:12:30;;;;;;;15.25;10.35;;;;;;;17.92;67.81;98371.26;1797146;79;20990;-77
2021/06/17 05:14:56;;;;;;;11.95;8.30;;;;;;;18.01;67.39;98377.00;1765771;80;21343;-77
2021/06/17 05:17:23;;;;;;;12.70;8.83;;;;;;;18.14;66.76;98382.12;1797366;79;21550;-77
2021/06/17 05:19:49;;;;;;;10.15;8.20;;;;;;;18.25;66.20;98378.50;1765565;80;20907;-77
2021/06/17 05:22:15;;;;;;;11.55;8.73;;;;;;;18.30;65.67;98381.09;1797351;79;20893;-77
2021/06/17 05:24:41;;;;;;;11.75;9.25;;;;;;;18.41;65.46;98383.75;1765834;81;20973;-77
2021/06/17 05:27:08;;;;;;;12.73;8.63;;;;;;;18.52;65.51;98385.61;1797456;79;21028;-76
2021/06/17 05:29:34;;;;;;;13.62;7.83;;;;;;;18.66;64.90;98388.23;1765766;80;21414;-77
2021/06/17 05:32:00;;;;;;;17.15;12.47;;;;;;;18.78;64.81;98385.63;1783593;79;21448;-77
2021/06/17 05:34:26;;;;;;;13.48;8.68;;;;;;;18.88;64.94;98384.75;1765616;81;20869;-77
2021/06/17 05:36:52;;;;;;;13.10;8.75;;;;;;;19.06;64.37;98387.47;1797390;79;20846;-77
2021/06/17 05:39:18;;;;;;;11.93;7.58;;;;;;;19.21;64.08;98389.67;1766047;80;20916;-77
2021/06/17 05:41:44;;;;;;;16.65;11.50;;;;;;;19.36;63.71;98381.47;1797053;79;21163;-77
2021/06/17 05:44:10;;;;;;;14.05;8.48;;;;;;;19.50;62.95;98382.08;1765752;80;21457;-76
2021/06/17 05:47:03;;;;;;;;;;;;;;;;;;;;;
2021/06/17 05:49:31;;;;;;;11.38;8.53;;;;;;;19.78;62.21;98393.46;1754454;80;21354;-77
2021/06/17 05:51:57;;;;;;;14.50;8.45;;;;;;;19.92;62.03;98398.74;1810330;79;21477;-77
2021/06/17 05:54:23;;;;;;;13.18;8.53;;;;;;;20.09;62.04;98390.96;1765757;81;21045;-77
2021/06/17 05:56:51;;;;;;;12.23;7.42;;;;;;;20.27;61.48;98389.70;1797051;79;20989;-77
2021/06/17 05:59:18;;;;;;;10.32;8.28;;;;;;;20.49;61.68;98392.14;1765547;80;20901;-77
2021/06/17 06:01:44;;;;;;;16.35;8.48;;;;;;;20.73;60.35;98394.22;1797078;79;20902;-77
2021/06/17 06:04:10;;;;;;;10.90;7.62;;;;;;;20.75;60.47;98395.26;1765691;81;20985;-77
2021/06/17 06:06:36;;;;;;;11.25;7.78;;;;;;;20.93;59.84;98402.79;1797056;79;20965;-77
2021/06/17 06:09:03;;;;;;;16.12;7.95;;;;;;;21.04;59.27;98402.63;1778303;80;20980;-77
2021/06/17 06:11:30;;;;;;;17.07;8.23;;;;;;;21.11;59.86;98412.52;1797193;79;21457;-77
2021/06/17 06:13:56;;;;;;;9.28;7.30;;;;;;;21.29;60.25;98407.09;1765695;80;20977;-77
2021/06/17 06:16:22;;;;;;;12.00;7.97;;;;;;;21.58;59.18;98404.72;1797289;79;20993;-77
2021/06/17 06:18:48;;;;;;;13.98;6.97;;;;;;;21.71;57.73;98406.13;1765863;80;21329;-77
2021/06/17 06:21:14;;;;;;;8.75;7.12;;;;;;;21.66;57.62;98401.06;1797251;79;20895;-77
2021/06/17 06:23:41;;;;;;;11.53;8.03;;;;;;;21.65;57.04;98402.21;1752557;81;20989;-77
2021/06/17 06:26:07;;;;;;;8.48;7.50;;;;;;;21.71;57.47;98396.48;1797126;79;21339;-77
2021/06/17 06:28:33;;;;;;;9.95;7.80;;;;;;;21.90;56.89;98396.14;1752543;81;21071;-77
2021/06/17 06:31:00;;;;;;;9.50;6.90;;;;;;;22.09;56.48;98393.39;1785842;79;21051;-77
2021/06/17 06:33:25;;;;;;;9.65;6.72;;;;;;;;;;1765635;80;20949;-77
2021/06/17 06:35:51;;;;;;;13.72;7.53;;;;;;;22.26;55.37;98393.72;1797162;79;20940;-77
2021/06/17 06:38:17;;;;;;;10.82;8.23;;;;;;;22.31;56.36;98397.63;1778484;80;20930;-77
2021/06/17 06:40:44;;;;;;;11.48;8.23;;;;;;;22.55;56.37;98398.94;1797047;79;20850;-77
2021/06/17 06:43:13;;;;;;;12.63;8.45;;;;;;;22.88;56.25;98400.70;1766049;80;21154;-77
2021/06/17 06:45:38;;;;;;;12.60;8.33;;;;;;;23.17;55.66;98400.94;1797216;79;20903;-76
2021/06/17 06:48:04;;;;;;;14.28;8.40;;;;;;;23.46;55.28;98396.95;1765885;80;21028;-76
2021/06/17 06:50:30;;;;;;;11.63;8.40;;;;;;;23.69;53.59;98398.57;1797407;79;20937;-77
2021/06/17 06:52:56;;;;;;;9.63;7.55;;;;;;;23.85;53.29;98389.69;1765975;80;21079;-76
2021/06/17 06:55:22;;;;;;;11.85;8.40;;;;;;;23.95;52.70;98389.72;1797340;79;21318;-77
2021/06/17 06:57:48;;;;;;;9.70;7.92;;;;;;;24.06;52.08;98386.03;1752647;81;21287;-77
2021/06/17 07:00:16;;;;;;;13.40;9.10;;;;;;;24.28;52.95;98382.38;1796524;79;21017;-76
2021/06/17 07:02:42;;;;;;;11.30;9.15;;;;;;;24.45;52.51;98379.23;1787908;80;21406;-77
2021/06/17 07:05:09;;;;;;;14.40;9.55;;;;;;;24.63;52.29;98376.26;1787479;80;20894;-77
2021/06/17 07:07:35;;;;;;;12.78;9.25;;;;;;;24.85;51.39;98383.61;1787986;79;21453;-76
2021/06/17 07:10:01;;;;;;;8.28;5.47;;;;;;;25.05;50.87;98389.99;1787771;80;21009;-76
2021/06/17 07:12:27;;;;;;;6.53;4.40;;;;;;;25.16;48.78;98390.41;1765072;81;20932;-76
2021/06/17 07:14:53;;;;;;;6.70;4.40;;;;;;;25.42;46.04;98390.28;1787857;80;20916;-76
2021/06/17 07:17:19;;;;;;;5.60;3.75;;;;;;;25.60;45.25;98388.03;1787677;80;21575;-77
2021/06/17 07:19:45;;;;;;;5.35;3.80;;;;;;;25.71;44.10;98389.62;1787668;80;21183;-76
2021/06/17 07:22:11;;;;;;;5.53;3.72;;;;;;;26.00;43.79;98383.97;1787669;80;20957;-76
2021/06/17 07:24:37;;;;;;;5.67;3.83;;;;;;;26.22;42.52;98380.91;1759113;80;21496;-76
2021/06/17 07:27:04;;;;;;;6.67;3.50;;;;;;;26.30;41.27;98386.78;1788059;80;20846;-76
2021/06/17 07:29:30;;;;;;;4.65;3.83;;;;;;;26.40;42.15;98384.77;1787907;80;20969;-76
2021/06/17 07:31:56;;;;;;;4.70;3.70;;;;;;;26.72;43.00;98387.18;1787885;79;21155;-76
2021/06/17 07:34:22;;;;;;;8.65;3.72;;;;;;;26.89;40.74;98386.59;1764968;80;20949;-76
2021/06/17 07:36:49;;;;;;;10.58;4.53;;;;;;;26.94;39.85;98384.87;1788060;80;20960;-76
2021/06/17 07:39:15;;;;;;;7.25;4.10;;;;;;;27.47;39.29;98386.66;1759244;80;21032;-76
2021/06/17 07:41:41;;;;;;;5.25;3.87;;;;;;;27.91;38.93;98385.87;1758805;80;21487;-76
2021/06/17 07:44:08;;;;;;;5.47;4.03;;;;;;;28.34;39.23;98382.23;1773114;80;21032;-76
2021/06/17 07:46:34;;;;;;;6.55;3.70;;;;;;;29.01;37.87;98374.01;1785249;80;20949;-77
2021/06/17 07:49:01;;;;;;;5.47;3.90;;;;;;;29.39;35.03;98370.30;1784892;80;21532;-77
2021/06/17 07:51:28;;;;;;;7.17;4.00;;;;;;;29.74;34.33;98370.38;1759068;80;20965;-77
2021/06/17 07:53:59;;;;;;;6.00;3.37;;;;;;;29.90;35.27;98376.94;1788097;80;21048;-77
2021/06/17 07:56:22;;;;;;;5.12;3.15;;;;;;;30.36;33.45;98374.72;1787343;80;21290;-77
2021/06/17 07:58:48;;;;;;;5.47;3.30;;;;;;;30.58;32.70;98375.45;1787872;80;20909;-77
2021/06/17 08:01:14;;;;;;;6.67;3.80;;;;;;;30.93;31.33;98377.94;1797560;79;21350;-77
2021/06/17 08:03:40;;;;;;;5.85;3.33;;;;;;;30.97;31.02;98374.53;1768211;80;21024;-77
2021/06/17 08:06:06;;;;;;;4.67;3.83;;;;;;;31.14;30.55;98374.44;1799273;79;20910;-77
2021/06/17 08:08:32;;;;;;;4.58;3.60;;;;;;;31.18;30.78;98370.21;1753004;81;21112;-77
2021/06/17 08:10:58;;;;;;;5.95;3.85;;;;;;;31.35;30.76;98377.73;1799642;79;20889;-77
2021/06/17 08:13:24;;;;;;;5.72;3.58;;;;;;;31.35;30.82;98379.73;1753017;81;20928;-77
2021/06/17 08:15:50;;;;;;;5.85;3.12;;;;;;;31.45;29.74;98378.89;1799423;79;20945;-77
2021/06/17 08:18:16;;;;;;;12.05;8.25;;;;;;;32.03;28.72;98375.05;1768457;80;21064;-77
2021/06/17 08:20:42;;;;;;;12.95;3.87;;;;;;;32.03;28.72;98375.05;1799496;79;21132;-77
2021/06/17 08:23:10;;;;;;;4.25;3.02;;;;;;;32.14;29.41;98375.77;1768209;80;21012;-77
2021/06/17 08:25:36;;;;;;;5.47;3.05;;;;;;;32.89;28.06;98370.14;1799449;79;21595;-78
2021/06/17 08:28:06;;;;;;;4.80;2.83;;;;;;;32.79;27.08;98371.84;1768084;80;20960;-77
2021/06/17 08:30:34;;;;;;;7.30;4.47;;;;;;;32.96;26.62;98372.06;1799544;79;20993;-78
2021/06/17 08:33:00;;;;;;;4.17;3.33;;;;;;;33.03;28.21;98375.58;1768156;80;21155;-78
2021/06/17 08:35:26;;;;;;;4.78;3.22;;;;;;;33.24;27.69;98368.86;1799853;79;21032;-78
2021/06/17 08:37:54;;;;;;;5.72;3.47;;;;;;;33.65;26.50;98376.31;1768117;81;21047;-78
2021/06/17 08:40:25;;;;;;;;;;;;;;;34.27;25.47;98374.89;1801977;79;21436;-78
2021/06/17 08:42:51;;;;;;;6.25;4.50;;;;;;;33.86;25.95;98370.97;1799376;79;20115;-78
2021/06/17 08:45:17;;;;;;;5.08;3.55;;;;;;;34.58;25.58;98374.11;1767750;80;21060;-78
2021/06/17 08:47:44;;;;;;;4.70;3.25;;;;;;;34.73;24.86;98374.02;1799401;79;20885;-78
2021/06/17 08:50:11;;;;;;;3.73;2.90;;;;;;;34.24;25.25;98379.95;1768001;80;20941;-78
2021/06/17 08:52:41;;;;;;;7.00;3.12;;;;;;;35.02;24.96;98377.04;1799767;79;20966;-78
2021/06/17 08:55:21;;;;;;;4.33;3.08;;;;;;;35.34;24.52;98381.97;1767977;80;21347;-79
2021/06/17 08:57:50;;;;;;;4.87;3.52;;;;;;;35.99;22.47;98381.28;1799017;79;21951;-77
2021/06/17 09:00:24;;;;;;;3.87;3.22;;;;;;;35.82;21.84;98385.31;1766605;80;20981;-77
2021/06/17 09:03:08;;;;;;;5.03;3.35;;;;;;;35.73;22.85;98376.69;1787584;80;21477;-78
2021/06/17 09:05:38;;;;;;;6.42;3.40;;;;;;;36.35;22.48;98373.29;1765203;81;20953;-78
2021/06/17 09:08:06;;;;;;;6.72;3.75;;;;;;;36.25;22.12;98371.55;1787718;80;20957;-78
2021/06/17 09:10:32;;;;;;;8.43;2.90;;;;;;;37.20;21.07;98377.94;1773471;80;21154;-78
2021/06/17 09:13:03;;;;;;;3.75;3.27;;;;;;;37.36;20.35;98380.53;1787834;80;21619;-78
2021/06/17 09:15:35;;;;;;;5.50;3.67;;;;;;;37.69;19.23;98379.05;1787897;79;21452;-78
2021/06/17 09:18:11;;;;;;;3.40;2.58;;;;;;;37.40;20.40;98389.67;1787970;79;21414;-78
2021/06/17 09:20:37;;;;;;;7.25;3.70;;;;;;;37.20;18.73;98387.83;1788021;79;21025;-78
2021/06/17 09:23:25;;;;;;;4.08;3.40;;;;;;;36.69;19.75;98387.68;1787948;80;21251;-78
2021/06/17 09:26:01;;;;;;;3.70;3.00;;;;;;;37.13;19.38;98389.45;1759113;80;20969;-78
2021/06/17 09:28:44;;;;;;;5.95;3.40;;;;;;;37.38;20.00;98375.21;1787757;79;20930;-78
2021/06/17 09:31:21;;;;;;;5.47;3.35;;;;;;;37.80;20.23;98368.20;1724903;80;21013;-78
2021/06/17 09:33:48;;;;;;;3.60;2.87;;;;;;;38.05;19.92;98368.78;1788128;79;21339;-77
2021/06/17 09:36:14;;;;;;;4.28;2.87;;;;;;;37.86;20.45;98369.03;1785097;79;21141;-77
2021/06/17 09:38:47;;;;;;;6.53;3.45;;;;;;;35.83;22.10;98376.41;1787815;79;20881;-77
2021/06/17 09:41:35;;;;;;;5.35;3.08;;;;;;;34.65;23.74;98372.56;1758685;80;20985;-77
2021/06/17 09:44:01;;;;;;;7.37;3.67;;;;;;;34.52;23.72;98365.19;1787707;80;20966;-77
2021/06/17 09:46:27;;;;;;;7.20;4.30;;;;;;;32.59;26.56;98375.71;1785790;80;20910;-78
2021/06/17 09:48:53;;;;;;;5.60;4.15;;;;;;;32.55;26.88;98371.53;1766513;81;21002;-78
2021/06/17 09:51:34;;;;;;;6.55;4.30;;;;;;;33.51;25.96;98368.13;1766080;81;21553;-76
2021/06/17 09:54:21;;;;;;;9.23;6.25;;;;;;;31.96;27.98;98377.30;1765695;81;20966;-76
2021/06/17 09:56:54;;;;;;;11.10;6.85;;;;;;;31.02;28.96;98367.09;1766623;81;20993;-77
2021/06/17 09:59:51;;;;;;;7.90;4.95;;;;;;;30.45;30.29;98363.92;1761763;81;20977;-77
2021/06/17 10:02:28;;;;;;;6.45;4.55;;;;;;;29.95;31.67;98357.59;1766706;81;21113;-78
2021/06/17 10:05:16;;;;;;;8.30;4.53;;;;;;;29.31;32.18;98355.56;1766144;81;20970;-78
2021/06/17 10:07:43;;;;;;;5.92;3.58;;;;;;;29.18;32.24;98354.33;1766395;81;20970;-76
2021/06/17 10:10:10;;;;;;;6.15;4.35;;;;;;;29.08;33.65;98351.72;1766373;81;21073;-76
2021/06/17 10:12:37;;;;;;;7.00;3.98;;;;;;;28.75;33.39;98358.95;1766616;81;21327;-76
2021/06/17 10:15:05;;;;;;;9.20;5.20;;;;;;;28.57;33.48;98365.84;1766460;81;21798;-75
2021/06/17 10:17:30;;;;;;;8.55;5.08;;;;;;;28.45;34.10;98351.62;1766500;81;21532;-75
2021/06/17 10:19:57;;;;;;;5.97;4.85;;;;;;;28.29;35.50;98356.14;1766733;81;21421;-75
2021/06/17 10:22:32;;;;;;;10.08;6.37;;;;;;;28.31;34.68;98346.80;1766573;81;21013;-76
2021/06/17 10:24:58;;;;;;;6.25;3.70;;;;;;;28.25;34.29;98346.13;1766529;81;21422;-77
2021/06/17 10:27:36;;;;;;;9.40;4.35;;;;;;;28.10;35.06;98346.63;1736437;81;21870;-77
2021/06/17 10:30:04;;;;;;;8.28;4.90;;;;;;;27.98;36.00;98353.31;1761487;81;20985;-76
2021/06/17 10:32:43;;;;;;;7.78;4.20;;;;;;;27.94;35.49;98351.68;1766566;81;21017;-76
2021/06/17 10:35:09;;;;;;;6.15;4.12;;;;;;;27.95;34.98;98351.91;1761182;81;21016;-77
2021/06/17 10:37:53;;;;;;;11.30;4.30;;;;;;;27.88;34.70;98357.42;1766579;81;20927;-77
2021/06/17 10:40:25;;;;;;;4.50;3.85;;;;;;;27.92;35.35;98356.84;1766689;81;21516;-77
2021/06/17 10:42:52;;;;;;;13.62;4.42;;;;;;;27.86;36.27;98353.64;1766586;81;21028;-77
2021/06/17 10:45:41;;;;;;;7.15;4.87;;;;;;;27.87;36.51;98350.27;1766607;81;20982;-77
2021/06/17 10:48:12;;;;;;;5.65;4.62;;;;;;;27.86;37.27;98350.85;1766575;81;20939;-76
2021/06/17 10:51:06;;;;;;;7.15;3.85;;;;;;;27.66;36.18;98346.67;1766863;81;20978;-77
2021/06/17 10:53:43;;;;;;;7.20;4.33;;;;;;;27.61;36.63;98339.48;1766827;81;21895;-76
2021/06/17 10:56:18;;;;;;;5.60;4.00;;;;;;;28.45;36.11;98330.72;1766465;81;20961;-78
2021/06/17 10:58:50;;;;;;;4.72;3.80;;;;;;;34.06;27.83;98324.66;1767203;81;21320;-76
2021/06/17 11:01:36;;;;;;;4.55;3.45;;;;;;;34.06;27.83;98324.66;1766821;81;21327;-77
2021/06/17 11:04:21;;;;;;;5.33;3.98;;;;;;;35.86;24.39;98326.19;1767009;81;20986;-77
2021/06/17 11:07:08;;;;;;;3.30;3.00;;;;;;;36.93;23.45;98329.56;1766688;81;21030;-77
2021/06/17 11:09:45;;;;;;;3.70;3.25;;;;;;;37.49;22.33;98321.34;1766713;81;21544;-76
2021/06/17 11:12:24;;;;;;;5.30;3.50;;;;;;;37.14;21.98;98325.28;1767426;81;21013;-78
2021/06/17 11:14:57;;;;;;;8.88;4.00;;;;;;;36.82;21.58;98326.22;1766555;81;21409;-76
2021/06/17 11:17:33;;;;;;;4.20;3.80;;;;;;;38.16;20.68;98320.94;1766528;81;20930;-78
2021/06/17 11:20:22;;;;;;;7.87;4.30;;;;;;;38.82;20.72;98318.97;1766738;81;21189;-77
2021/06/17 11:22:59;;;;;;;8.63;3.00;;;;;;;40.03;19.09;98320.56;1766526;81;20903;-76
2021/06/17 11:25:27;;;;;;;3.70;2.40;;;;;;;41.09;16.38;98321.26;1766907;81;21022;-77
2021/06/17 11:28:03;;;;;;;4.25;3.33;;;;;;;41.32;16.19;98326.89;1766585;81;21016;-77
2021/06/17 11:30:46;;;;;;;5.20;2.77;;;;;;;41.29;16.38;98322.81;1766532;81;21004;-76
2021/06/17 11:33:26;;;;;;;4.33;2.72;;;;;;;40.84;16.55;98311.68;1736306;81;21133;-78
2021/06/17 11:35:58;;;;;;;6.97;3.45;;;;;;;41.62;15.73;98303.69;1766499;81;21418;-78
2021/06/17 11:38:27;;;;;;;3.15;2.80;;;;;;;41.88;16.28;98305.44;1736755;81;21327;-76
2021/06/17 11:40:54;;;;;;;5.67;3.10;;;;;;;41.58;16.04;98306.55;1766799;81;20978;-77
2021/06/17 11:43:25;;;;;;;4.17;2.90;;;;;;;41.38;16.65;98301.45;1767019;79;20927;-76
2021/06/17 11:45:51;;;;;;;4.97;3.00;;;;;;;41.45;16.93;98300.28;1779869;80;21577;-77
2021/06/17 11:48:17;;;;;;;4.50;3.07;;;;;;;40.70;16.98;98306.69;1747585;80;21441;-77
2021/06/17 11:50:45;;;;;;;4.80;3.07;;;;;;;40.00;17.76;98298.01;1752177;80;26347;-78